sensor_id;sensor_type;location;lat;lon;timestamp;pressure;altitude;pressure_sealevel;temperature;humidity
29879;BME280;16752;53.364;-1.488;2023-09-18T00:00:53;98978.72;;;23.76;54.04
29879;BME280;16752;53.364;-1.488;2023-09-18T00:03:40;99049.47;;;24.49;53.00
29879;BME280;16752;53.364;-1.488;2023-09-18T00:06:24;98995.00;;;24.18;52.90
29879;BME280;16752;53.364;-1.488;2023-09-18T00:09:09;99070.75;;;24.62;53.10
29879;BME280;16752;53.364;-1.488;2023-09-18T00:11:55;99043.09;;;24.25;53.92
29879;BME280;16752;53.364;-1.488;2023-09-18T00:14:39;98999.69;;;24.23;53.33
29879;BME280;16752;53.364;-1.488;2023-09-18T00:17:25;98996.44;;;23.46;55.04
29879;BME280;16752;53.364;-1.488;2023-09-18T00:20:09;99051.53;;;24.28;54.07
29879;BME280;16752;53.364;-1.488;2023-09-18T00:22:54;99047.38;;;24.51;53.28
29879;BME280;16752;53.364;-1.488;2023-09-18T00:25:39;99006.19;;;24.33;53.15
29879;BME280;16752;53.364;-1.488;2023-09-18T00:28:26;98993.25;;;24.30;53.00
29879;BME280;16752;53.364;-1.488;2023-09-18T00:31:10;99071.25;;;24.89;52.82
29879;BME280;16752;53.364;-1.488;2023-09-18T00:33:54;99023.72;;;24.66;52.70
29879;BME280;16752;53.364;-1.488;2023-09-18T00:36:37;99055.53;;;24.92;52.66
29879;BME280;16752;53.364;-1.488;2023-09-18T00:39:22;99033.75;;;24.89;52.96
29879;BME280;16752;53.364;-1.488;2023-09-18T00:42:06;98990.53;;;24.67;52.31
29879;BME280;16752;53.364;-1.488;2023-09-18T00:44:50;98999.47;;;24.79;52.66
29879;BME280;16752;53.364;-1.488;2023-09-18T00:47:34;99003.78;;;24.80;52.74
29879;BME280;16752;53.364;-1.488;2023-09-18T00:50:20;99008.59;;;24.72;53.17
29879;BME280;16752;53.364;-1.488;2023-09-18T00:53:07;98984.69;;;24.58;52.93
29879;BME280;16752;53.364;-1.488;2023-09-18T00:55:53;98965.63;;;24.66;52.77
29879;BME280;16752;53.364;-1.488;2023-09-18T00:58:39;98932.41;;;24.56;52.68
29879;BME280;16752;53.364;-1.488;2023-09-18T01:01:24;98948.88;;;24.71;52.15
29879;BME280;16752;53.364;-1.488;2023-09-18T01:04:08;99022.66;;;24.85;53.25
29879;BME280;16752;53.364;-1.488;2023-09-18T01:06:53;99037.13;;;25.14;52.91
29879;BME280;16752;53.364;-1.488;2023-09-18T01:09:38;98994.97;;;24.91;52.70
29879;BME280;16752;53.364;-1.488;2023-09-18T01:15:45;98987.19;;;24.72;53.46
29879;BME280;16752;53.364;-1.488;2023-09-18T01:18:31;98920.66;;;24.20;53.94
29879;BME280;16752;53.364;-1.488;2023-09-18T01:21:16;99012.03;;;24.79;53.69
29879;BME280;16752;53.364;-1.488;2023-09-18T01:24:00;98894.97;;;24.37;53.24
29879;BME280;16752;53.364;-1.488;2023-09-18T01:26:44;98915.88;;;24.59;53.07
29879;BME280;16752;53.364;-1.488;2023-09-18T01:29:28;98924.50;;;24.61;53.54
29879;BME280;16752;53.364;-1.488;2023-09-18T01:32:13;98951.81;;;25.00;52.89
29879;BME280;16752;53.364;-1.488;2023-09-18T01:35:00;98889.38;;;24.69;52.40
29879;BME280;16752;53.364;-1.488;2023-09-18T01:37:44;98926.50;;;24.95;52.76
29879;BME280;16752;53.364;-1.488;2023-09-18T01:40:29;98901.06;;;24.86;52.63
29879;BME280;16752;53.364;-1.488;2023-09-18T01:43:14;98951.88;;;25.23;52.91
29879;BME280;16752;53.364;-1.488;2023-09-18T01:45:58;98822.47;;;24.51;52.67
29879;BME280;16752;53.364;-1.488;2023-09-18T01:48:47;98931.50;;;25.22;52.45
29879;BME280;16752;53.364;-1.488;2023-09-18T01:51:31;98829.16;;;24.60;52.54
29879;BME280;16752;53.364;-1.488;2023-09-18T01:54:15;98880.34;;;24.93;52.80
29879;BME280;16752;53.364;-1.488;2023-09-18T01:57:00;98904.91;;;25.20;52.66
29879;BME280;16752;53.364;-1.488;2023-09-18T01:59:44;98808.56;;;24.72;52.77
29879;BME280;16752;53.364;-1.488;2023-09-18T02:02:29;98899.69;;;25.25;52.64
29879;BME280;16752;53.364;-1.488;2023-09-18T02:05:13;98813.03;;;24.78;52.37
29879;BME280;16752;53.364;-1.488;2023-09-18T02:07:57;98883.34;;;25.27;52.46
29879;BME280;16752;53.364;-1.488;2023-09-18T02:10:41;98855.38;;;25.00;52.86
29879;BME280;16752;53.364;-1.488;2023-09-18T02:13:24;98832.81;;;24.89;52.90
29879;BME280;16752;53.364;-1.488;2023-09-18T02:16:08;98845.59;;;25.05;52.86
29879;BME280;16752;53.364;-1.488;2023-09-18T02:18:54;98813.50;;;24.87;52.79
29879;BME280;16752;53.364;-1.488;2023-09-18T02:21:40;98860.03;;;25.27;52.74
29879;BME280;16752;53.364;-1.488;2023-09-18T02:24:24;98843.72;;;25.29;52.57
29879;BME280;16752;53.364;-1.488;2023-09-18T02:27:09;98767.59;;;24.83;52.48
29879;BME280;16752;53.364;-1.488;2023-09-18T02:29:54;98797.13;;;25.07;52.52
29879;BME280;16752;53.364;-1.488;2023-09-18T02:32:38;98806.44;;;25.16;52.38
29879;BME280;16752;53.364;-1.488;2023-09-18T02:35:23;98770.50;;;24.93;52.53
29879;BME280;16752;53.364;-1.488;2023-09-18T02:38:07;98817.50;;;25.31;52.53
29879;BME280;16752;53.364;-1.488;2023-09-18T02:40:51;98770.88;;;24.74;52.80
29879;BME280;16752;53.364;-1.488;2023-09-18T02:43:36;98753.28;;;24.89;52.25
29879;BME280;16752;53.364;-1.488;2023-09-18T02:46:23;98785.22;;;25.14;52.80
29879;BME280;16752;53.364;-1.488;2023-09-18T02:49:07;98779.44;;;25.17;52.23
29879;BME280;16752;53.364;-1.488;2023-09-18T02:51:51;98759.03;;;25.05;52.47
29879;BME280;16752;53.364;-1.488;2023-09-18T02:54:35;98771.16;;;25.19;52.62
29879;BME280;16752;53.364;-1.488;2023-09-18T02:57:19;98759.25;;;25.15;52.60
29879;BME280;16752;53.364;-1.488;2023-09-18T03:00:04;98775.69;;;25.18;52.59
29879;BME280;16752;53.364;-1.488;2023-09-18T03:02:48;98771.84;;;25.26;52.47
29879;BME280;16752;53.364;-1.488;2023-09-18T03:05:32;98713.81;;;24.85;52.71
29879;BME280;16752;53.364;-1.488;2023-09-18T03:08:16;98741.97;;;24.87;52.82
29879;BME280;16752;53.364;-1.488;2023-09-18T03:11:00;98768.47;;;25.07;53.04
29879;BME280;16752;53.364;-1.488;2023-09-18T03:13:46;98747.25;;;25.17;52.70
29879;BME280;16752;53.364;-1.488;2023-09-18T03:16:30;98739.91;;;25.13;52.79
29879;BME280;16752;53.364;-1.488;2023-09-18T03:19:17;98708.69;;;24.95;52.39
29879;BME280;16752;53.364;-1.488;2023-09-18T03:22:01;98757.50;;;25.20;52.98
29879;BME280;16752;53.364;-1.488;2023-09-18T03:24:45;98722.22;;;25.00;52.76
29879;BME280;16752;53.364;-1.488;2023-09-18T03:27:30;98746.78;;;25.09;53.03
29879;BME280;16752;53.364;-1.488;2023-09-18T03:30:15;98626.41;;;24.02;53.71
29879;BME280;16752;53.364;-1.488;2023-09-18T03:32:59;98753.91;;;24.38;54.93
29879;BME280;16752;53.364;-1.488;2023-09-18T03:35:48;98717.75;;;24.17;54.86
29879;BME280;16752;53.364;-1.488;2023-09-18T03:38:33;98744.75;;;24.69;54.33
29879;BME280;16752;53.364;-1.488;2023-09-18T03:41:19;98733.00;;;24.93;53.46
29879;BME280;16752;53.364;-1.488;2023-09-18T03:44:03;98673.75;;;24.66;53.33
29879;BME280;16752;53.364;-1.488;2023-09-18T03:46:48;98645.56;;;24.64;52.64
29879;BME280;16752;53.364;-1.488;2023-09-18T03:49:31;98721.63;;;25.10;52.82
29879;BME280;16752;53.364;-1.488;2023-09-18T03:52:15;98593.63;;;24.18;52.88
29879;BME280;16752;53.364;-1.488;2023-09-18T03:54:59;98657.44;;;24.68;52.88
29879;BME280;16752;53.364;-1.488;2023-09-18T03:57:44;98713.09;;;25.13;53.00
29879;BME280;16752;53.364;-1.488;2023-09-18T04:00:30;98661.53;;;24.59;53.28
29879;BME280;16752;53.364;-1.488;2023-09-18T04:03:13;98626.59;;;24.65;53.10
29879;BME280;16752;53.364;-1.488;2023-09-18T04:05:57;98602.97;;;24.51;52.57
29879;BME280;16752;53.364;-1.488;2023-09-18T04:08:41;98639.28;;;24.70;52.67
29879;BME280;16752;53.364;-1.488;2023-09-18T04:11:25;98662.00;;;24.79;53.08
29879;BME280;16752;53.364;-1.488;2023-09-18T04:14:10;98668.16;;;24.80;53.15
29879;BME280;16752;53.364;-1.488;2023-09-18T04:16:54;98682.84;;;25.01;52.97
29879;BME280;16752;53.364;-1.488;2023-09-18T04:19:38;98592.38;;;24.56;52.71
29879;BME280;16752;53.364;-1.488;2023-09-18T04:22:22;98612.97;;;24.67;52.91
29879;BME280;16752;53.364;-1.488;2023-09-18T04:25:06;98604.16;;;24.55;52.39
29879;BME280;16752;53.364;-1.488;2023-09-18T04:27:50;98662.22;;;24.78;52.97
29879;BME280;16752;53.364;-1.488;2023-09-18T04:30:36;98666.03;;;24.93;52.59
29879;BME280;16752;53.364;-1.488;2023-09-18T04:33:21;98666.97;;;24.87;52.69
29879;BME280;16752;53.364;-1.488;2023-09-18T04:36:05;98638.69;;;24.68;52.83
29879;BME280;16752;53.364;-1.488;2023-09-18T04:38:50;98669.31;;;24.60;53.43
29879;BME280;16752;53.364;-1.488;2023-09-18T04:41:35;98614.94;;;24.48;52.99
29879;BME280;16752;53.364;-1.488;2023-09-18T04:44:18;98638.94;;;24.43;53.12
29879;BME280;16752;53.364;-1.488;2023-09-18T04:47:02;98687.28;;;24.18;54.72
29879;BME280;16752;53.364;-1.488;2023-09-18T04:49:47;98648.47;;;24.51;53.42
29879;BME280;16752;53.364;-1.488;2023-09-18T04:52:33;98623.09;;;24.42;53.06
29879;BME280;16752;53.364;-1.488;2023-09-18T04:55:17;98635.81;;;24.58;53.41
29879;BME280;16752;53.364;-1.488;2023-09-18T04:58:01;98654.66;;;24.63;53.34
29879;BME280;16752;53.364;-1.488;2023-09-18T05:00:45;98628.34;;;24.48;53.16
29879;BME280;16752;53.364;-1.488;2023-09-18T05:03:30;98665.69;;;24.90;52.90
29879;BME280;16752;53.364;-1.488;2023-09-18T05:06:15;98553.38;;;24.25;52.84
29879;BME280;16752;53.364;-1.488;2023-09-18T05:08:59;98663.34;;;24.93;52.81
29879;BME280;16752;53.364;-1.488;2023-09-18T05:11:43;98589.81;;;24.49;52.45
29879;BME280;16752;53.364;-1.488;2023-09-18T05:14:27;98648.13;;;24.82;52.85
29879;BME280;16752;53.364;-1.488;2023-09-18T05:17:14;98590.63;;;24.50;52.83
29879;BME280;16752;53.364;-1.488;2023-09-18T05:19:59;98614.34;;;24.69;52.84
29879;BME280;16752;53.364;-1.488;2023-09-18T05:22:43;98572.94;;;24.49;52.66
29879;BME280;16752;53.364;-1.488;2023-09-18T05:25:28;98641.81;;;24.88;52.54
29879;BME280;16752;53.364;-1.488;2023-09-18T05:28:16;98649.63;;;24.90;52.14
29879;BME280;16752;53.364;-1.488;2023-09-18T05:31:00;98613.69;;;24.74;52.48
29879;BME280;16752;53.364;-1.488;2023-09-18T05:33:44;98616.78;;;24.71;52.29
29879;BME280;16752;53.364;-1.488;2023-09-18T05:36:28;98592.16;;;24.34;52.79
29879;BME280;16752;53.364;-1.488;2023-09-18T05:39:12;98571.75;;;24.21;52.98
29879;BME280;16752;53.364;-1.488;2023-09-18T05:41:56;98582.16;;;24.29;53.06
29879;BME280;16752;53.364;-1.488;2023-09-18T05:44:41;98569.13;;;23.68;54.70
29879;BME280;16752;53.364;-1.488;2023-09-18T05:47:25;98558.59;;;24.20;52.84
29879;BME280;16752;53.364;-1.488;2023-09-18T05:50:10;98524.28;;;24.05;52.81
29879;BME280;16752;53.364;-1.488;2023-09-18T05:52:59;98636.72;;;24.75;52.71
29879;BME280;16752;53.364;-1.488;2023-09-18T05:55:44;98539.44;;;24.11;52.76
29879;BME280;16752;53.364;-1.488;2023-09-18T05:58:28;98525.88;;;23.59;53.78
29879;BME280;16752;53.364;-1.488;2023-09-18T06:01:12;98630.91;;;24.55;53.10
29879;BME280;16752;53.364;-1.488;2023-09-18T06:03:56;98545.66;;;23.82;53.27
29879;BME280;16752;53.364;-1.488;2023-09-18T06:06:40;98563.28;;;24.13;52.68
29879;BME280;16752;53.364;-1.488;2023-09-18T06:09:24;98536.13;;;23.74;53.37
29879;BME280;16752;53.364;-1.488;2023-09-18T06:12:09;98560.09;;;24.04;52.93
29879;BME280;16752;53.364;-1.488;2023-09-18T06:14:53;98610.66;;;24.35;52.70
29879;BME280;16752;53.364;-1.488;2023-09-18T06:17:39;98637.41;;;24.47;52.84
29879;BME280;16752;53.364;-1.488;2023-09-18T06:20:23;98546.38;;;23.89;52.62
29879;BME280;16752;53.364;-1.488;2023-09-18T06:23:08;98592.34;;;24.21;52.71
29879;BME280;16752;53.364;-1.488;2023-09-18T06:25:52;98604.31;;;24.18;52.60
29879;BME280;16752;53.364;-1.488;2023-09-18T06:28:39;98636.03;;;24.45;52.78
29879;BME280;16752;53.364;-1.488;2023-09-18T06:31:23;98529.50;;;23.76;52.72
29879;BME280;16752;53.364;-1.488;2023-09-18T06:34:08;98641.16;;;24.34;52.97
29879;BME280;16752;53.364;-1.488;2023-09-18T06:36:52;98536.75;;;23.46;53.00
29879;BME280;16752;53.364;-1.488;2023-09-18T06:39:36;98597.41;;;23.75;53.03
29879;BME280;16752;53.364;-1.488;2023-09-18T06:42:21;98555.31;;;23.71;52.11
29879;BME280;16752;53.364;-1.488;2023-09-18T06:45:07;98531.59;;;23.03;52.56
29879;BME280;16752;53.364;-1.488;2023-09-18T06:47:51;98527.94;;;22.97;52.62
29879;BME280;16752;53.364;-1.488;2023-09-18T06:50:36;98558.03;;;23.23;52.74
29879;BME280;16752;53.364;-1.488;2023-09-18T06:53:22;98508.53;;;22.90;52.39
29879;BME280;16752;53.364;-1.488;2023-09-18T06:56:06;98581.88;;;23.36;52.61
29879;BME280;16752;53.364;-1.488;2023-09-18T06:58:53;98477.03;;;22.62;52.76
29879;BME280;16752;53.364;-1.488;2023-09-18T07:01:36;98486.88;;;22.80;52.29
29879;BME280;16752;53.364;-1.488;2023-09-18T07:04:20;98535.47;;;23.18;52.20
29879;BME280;16752;53.364;-1.488;2023-09-18T07:07:04;98565.56;;;23.44;51.93
29879;BME280;16752;53.364;-1.488;2023-09-18T07:09:48;98575.59;;;22.82;53.09
29879;BME280;16752;53.364;-1.488;2023-09-18T07:12:32;98522.78;;;22.84;52.42
29879;BME280;16752;53.364;-1.488;2023-09-18T07:15:17;98606.69;;;23.73;52.38
29879;BME280;16752;53.364;-1.488;2023-09-18T07:18:02;98568.28;;;23.26;52.25
29879;BME280;16752;53.364;-1.488;2023-09-18T07:20:46;98527.97;;;22.61;53.23
29879;BME280;16752;53.364;-1.488;2023-09-18T07:23:30;98489.63;;;22.18;53.67
29879;BME280;16752;53.364;-1.488;2023-09-18T07:26:14;98481.88;;;22.35;53.09
29879;BME280;16752;53.364;-1.488;2023-09-18T07:28:58;98560.47;;;23.24;52.01
29879;BME280;16752;53.364;-1.488;2023-09-18T07:31:43;98529.19;;;23.43;51.30
29879;BME280;16752;53.364;-1.488;2023-09-18T07:34:28;98536.59;;;23.41;51.88
29879;BME280;16752;53.364;-1.488;2023-09-18T07:37:12;98535.44;;;23.07;52.08
29879;BME280;16752;53.364;-1.488;2023-09-18T07:39:56;98543.22;;;23.38;52.22
29879;BME280;16752;53.364;-1.488;2023-09-18T07:42:40;98539.63;;;23.14;52.18
29879;BME280;16752;53.364;-1.488;2023-09-18T07:45:24;98486.06;;;22.06;53.68
29879;BME280;16752;53.364;-1.488;2023-09-18T07:48:08;98578.22;;;23.18;52.85
29879;BME280;16752;53.364;-1.488;2023-09-18T07:50:52;98522.00;;;22.22;54.20
29879;BME280;16752;53.364;-1.488;2023-09-18T07:53:39;98523.66;;;22.41;53.71
29879;BME280;16752;53.364;-1.488;2023-09-18T07:56:23;98504.81;;;22.54;53.25
29879;BME280;16752;53.364;-1.488;2023-09-18T07:59:07;98547.22;;;22.44;54.22
29879;BME280;16752;53.364;-1.488;2023-09-18T08:01:51;98499.34;;;22.68;53.03
29879;BME280;16752;53.364;-1.488;2023-09-18T08:04:36;98500.34;;;23.03;51.34
29879;BME280;16752;53.364;-1.488;2023-09-18T08:07:20;98489.00;;;23.20;51.22
29879;BME280;16752;53.364;-1.488;2023-09-18T08:10:04;98503.28;;;22.65;52.24
29879;BME280;16752;53.364;-1.488;2023-09-18T08:12:52;98529.06;;;22.71;52.75
29879;BME280;16752;53.364;-1.488;2023-09-18T08:15:36;98564.34;;;23.40;51.79
29879;BME280;16752;53.364;-1.488;2023-09-18T08:18:21;98528.56;;;22.44;53.69
29879;BME280;16752;53.364;-1.488;2023-09-18T08:21:05;98467.63;;;23.20;51.51
29879;BME280;16752;53.364;-1.488;2023-09-18T08:23:49;98470.22;;;23.68;51.06
29879;BME280;16752;53.364;-1.488;2023-09-18T08:26:33;98555.34;;;24.06;50.93
29879;BME280;16752;53.364;-1.488;2023-09-18T08:29:18;98547.16;;;23.77;52.21
29879;BME280;16752;53.364;-1.488;2023-09-18T08:32:02;98475.72;;;23.01;51.95
29879;BME280;16752;53.364;-1.488;2023-09-18T08:34:46;98463.88;;;23.51;51.34
29879;BME280;16752;53.364;-1.488;2023-09-18T08:37:40;98461.84;;;22.44;52.13
29879;BME280;16752;53.364;-1.488;2023-09-18T08:40:36;98415.88;;;22.61;51.49
29879;BME280;16752;53.364;-1.488;2023-09-18T08:43:21;98373.44;;;22.41;51.26
29879;BME280;16752;53.364;-1.488;2023-09-18T08:46:13;98445.19;;;21.69;51.71
29879;BME280;16752;53.364;-1.488;2023-09-18T08:48:58;98556.22;;;23.05;50.97
29879;BME280;16752;53.364;-1.488;2023-09-18T08:51:49;98474.78;;;22.77;51.80
29879;BME280;16752;53.364;-1.488;2023-09-18T08:54:34;98521.13;;;22.65;51.06
29879;BME280;16752;53.364;-1.488;2023-09-18T08:57:19;98467.81;;;23.36;49.05
29879;BME280;16752;53.364;-1.488;2023-09-18T09:00:04;98454.63;;;22.81;49.25
29879;BME280;16752;53.364;-1.488;2023-09-18T09:02:52;98426.53;;;23.21;48.62
29879;BME280;16752;53.364;-1.488;2023-09-18T09:05:38;98525.59;;;24.37;48.42
29879;BME280;16752;53.364;-1.488;2023-09-18T09:08:22;98513.47;;;23.65;48.33
29879;BME280;16752;53.364;-1.488;2023-09-18T09:11:06;98485.63;;;23.54;49.20
29879;BME280;16752;53.364;-1.488;2023-09-18T09:14:14;98381.41;;;23.89;48.12
29879;BME280;16752;53.364;-1.488;2023-09-18T09:17:18;98448.25;;;23.77;47.60
29879;BME280;16752;53.364;-1.488;2023-09-18T09:20:09;98426.56;;;24.37;47.94
29879;BME280;16752;53.364;-1.488;2023-09-18T09:23:09;98382.31;;;23.60;48.03
29879;BME280;16752;53.364;-1.488;2023-09-18T09:26:18;98516.72;;;24.49;47.64
29879;BME280;16752;53.364;-1.488;2023-09-18T09:29:19;98423.81;;;23.62;47.90
29879;BME280;16752;53.364;-1.488;2023-09-18T09:32:15;98452.72;;;24.24;46.43
29879;BME280;16752;53.364;-1.488;2023-09-18T09:35:03;98504.47;;;25.05;46.36
29879;BME280;16752;53.364;-1.488;2023-09-18T09:37:50;98443.50;;;25.12;45.62
29879;BME280;16752;53.364;-1.488;2023-09-18T09:40:41;98442.75;;;24.71;45.57
29879;BME280;16752;53.364;-1.488;2023-09-18T09:43:29;98442.75;;;24.31;44.85
29879;BME280;16752;53.364;-1.488;2023-09-18T09:46:18;98378.06;;;24.34;44.88
29879;BME280;16752;53.364;-1.488;2023-09-18T09:49:06;98490.56;;;25.36;44.41
29879;BME280;16752;53.364;-1.488;2023-09-18T09:51:51;98499.31;;;25.94;43.32
29879;BME280;16752;53.364;-1.488;2023-09-18T09:54:35;98476.41;;;25.07;44.52
29879;BME280;16752;53.364;-1.488;2023-09-18T09:57:20;98461.38;;;24.66;44.69
29879;BME280;16752;53.364;-1.488;2023-09-18T10:00:11;98496.09;;;25.29;44.76
29879;BME280;16752;53.364;-1.488;2023-09-18T10:03:17;98434.38;;;25.41;43.95
29879;BME280;16752;53.364;-1.488;2023-09-18T10:06:04;98447.75;;;26.08;43.15
29879;BME280;16752;53.364;-1.488;2023-09-18T10:08:48;98491.88;;;25.50;43.89
29879;BME280;16752;53.364;-1.488;2023-09-18T10:11:34;98487.97;;;26.25;41.68
29879;BME280;16752;53.364;-1.488;2023-09-18T10:14:29;98469.09;;;25.81;41.63
29879;BME280;16752;53.364;-1.488;2023-09-18T10:17:26;98410.72;;;24.76;44.19
29879;BME280;16752;53.364;-1.488;2023-09-18T10:20:16;98419.13;;;24.96;43.19
29879;BME280;16752;53.364;-1.488;2023-09-18T10:23:03;98494.84;;;25.66;44.01
29879;BME280;16752;53.364;-1.488;2023-09-18T10:26:00;98494.88;;;24.17;46.22
29879;BME280;16752;53.364;-1.488;2023-09-18T10:28:48;98427.84;;;24.75;44.83
29879;BME280;16752;53.364;-1.488;2023-09-18T10:31:38;98485.66;;;25.00;44.48
29879;BME280;16752;53.364;-1.488;2023-09-18T10:34:25;98508.53;;;24.67;45.38
29879;BME280;16752;53.364;-1.488;2023-09-18T10:37:09;98433.03;;;23.90;45.93
29879;BME280;16752;53.364;-1.488;2023-09-18T10:39:56;98514.13;;;24.65;45.60
29879;BME280;16752;53.364;-1.488;2023-09-18T10:42:43;98444.09;;;23.40;47.30
29879;BME280;16752;53.364;-1.488;2023-09-18T10:45:29;98508.25;;;24.52;47.13
29879;BME280;16752;53.364;-1.488;2023-09-18T10:48:15;98506.47;;;23.75;48.15
29879;BME280;16752;53.364;-1.488;2023-09-18T10:51:02;98531.94;;;23.66;48.25
29879;BME280;16752;53.364;-1.488;2023-09-18T10:53:49;98436.19;;;22.43;51.10
29879;BME280;16752;53.364;-1.488;2023-09-18T10:56:34;98512.09;;;23.97;48.53
29879;BME280;16752;53.364;-1.488;2023-09-18T10:59:19;98508.81;;;23.30;49.53
29879;BME280;16752;53.364;-1.488;2023-09-18T11:02:04;98470.41;;;23.13;50.25
29879;BME280;16752;53.364;-1.488;2023-09-18T11:04:52;98455.16;;;22.53;51.29
29879;BME280;16752;53.364;-1.488;2023-09-18T11:07:43;98524.41;;;23.03;51.49
29879;BME280;16752;53.364;-1.488;2023-09-18T11:10:27;98512.84;;;23.63;50.68
29879;BME280;16752;53.364;-1.488;2023-09-18T11:13:11;98562.72;;;23.39;51.84
29879;BME280;16752;53.364;-1.488;2023-09-18T11:20:23;98619.53;;;22.79;50.81
29879;BME280;16752;53.364;-1.488;2023-09-18T11:26:09;98565.69;;;21.40;51.77
29879;BME280;16752;53.364;-1.488;2023-09-18T11:28:55;98504.09;;;20.07;51.88
29879;BME280;16752;53.364;-1.488;2023-09-18T11:34:48;98606.34;;;20.51;50.89
29879;BME280;16752;53.364;-1.488;2023-09-18T11:40:52;98533.56;;;19.66;52.52
29879;BME280;16752;53.364;-1.488;2023-09-18T11:43:47;98436.63;;;19.02;50.22
29879;BME280;16752;53.364;-1.488;2023-09-18T11:46:34;98441.34;;;18.93;50.58
29879;BME280;16752;53.364;-1.488;2023-09-18T11:49:29;98504.97;;;19.55;51.48
29879;BME280;16752;53.364;-1.488;2023-09-18T11:52:23;98570.75;;;19.92;52.69
29879;BME280;16752;53.364;-1.488;2023-09-18T11:55:31;98506.59;;;19.56;51.00
29879;BME280;16752;53.364;-1.488;2023-09-18T11:58:24;98423.59;;;19.14;50.92
29879;BME280;16752;53.364;-1.488;2023-09-18T12:06:44;98409.31;;;19.21;52.33
29879;BME280;16752;53.364;-1.488;2023-09-18T12:13:23;98457.13;;;19.81;52.00
29879;BME280;16752;53.364;-1.488;2023-09-18T12:16:25;98480.00;;;19.89;52.22
29879;BME280;16752;53.364;-1.488;2023-09-18T12:27:53;98460.63;;;20.53;51.43
29879;BME280;16752;53.364;-1.488;2023-09-18T12:30:41;98504.72;;;20.87;52.06
29879;BME280;16752;53.364;-1.488;2023-09-18T12:33:28;98473.72;;;20.61;51.92
29879;BME280;16752;53.364;-1.488;2023-09-18T12:36:19;98468.59;;;19.75;53.22
29879;BME280;16752;53.364;-1.488;2023-09-18T12:44:30;98478.88;;;21.57;50.72
29879;BME280;16752;53.364;-1.488;2023-09-18T12:47:18;98469.09;;;21.51;49.96
29879;BME280;16752;53.364;-1.488;2023-09-18T12:56:41;98490.03;;;21.97;50.22
29879;BME280;16752;53.364;-1.488;2023-09-18T12:59:31;98498.72;;;21.86;49.23
29879;BME280;16752;53.364;-1.488;2023-09-18T13:05:12;98596.38;;;23.28;48.91
29879;BME280;16752;53.364;-1.488;2023-09-18T13:08:05;98598.97;;;23.35;48.17
29879;BME280;16752;53.364;-1.488;2023-09-18T13:10:49;98600.03;;;22.97;50.85
29879;BME280;16752;53.364;-1.488;2023-09-18T13:13:59;98483.97;;;23.00;48.62
29879;BME280;16752;53.364;-1.488;2023-09-18T13:16:44;98601.94;;;23.45;49.83
29879;BME280;16752;53.364;-1.488;2023-09-18T13:19:28;98482.97;;;23.12;48.99
29879;BME280;16752;53.364;-1.488;2023-09-18T13:22:24;98549.03;;;23.77;47.19
29879;BME280;16752;53.364;-1.488;2023-09-18T13:25:58;98576.56;;;24.54;45.68
29879;BME280;16752;53.364;-1.488;2023-09-18T13:28:23;98611.94;;;24.45;45.13
29879;BME280;16752;53.364;-1.488;2023-09-18T13:31:07;98579.47;;;24.29;45.21
29879;BME280;16752;53.364;-1.488;2023-09-18T13:34:02;98564.19;;;23.95;47.22
29879;BME280;16752;53.364;-1.488;2023-09-18T13:36:49;98613.44;;;23.45;46.78
29879;BME280;16752;53.364;-1.488;2023-09-18T13:39:36;98552.16;;;23.02;49.44
29879;BME280;16752;53.364;-1.488;2023-09-18T13:42:23;98610.91;;;23.02;47.58
29879;BME280;16752;53.364;-1.488;2023-09-18T13:45:08;98565.47;;;22.47;46.81
29879;BME280;16752;53.364;-1.488;2023-09-18T13:47:52;98543.88;;;21.56;46.06
29879;BME280;16752;53.364;-1.488;2023-09-18T13:50:38;98607.72;;;22.50;45.36
29879;BME280;16752;53.364;-1.488;2023-09-18T13:53:31;98634.75;;;24.35;44.71
29879;BME280;16752;53.364;-1.488;2023-09-18T13:56:15;98621.50;;;23.87;42.35
29879;BME280;16752;53.364;-1.488;2023-09-18T13:59:05;98688.63;;;23.67;42.97
29879;BME280;16752;53.364;-1.488;2023-09-18T14:01:55;98513.72;;;22.48;42.96
29879;BME280;16752;53.364;-1.488;2023-09-18T14:04:39;98617.63;;;23.23;43.76
29879;BME280;16752;53.364;-1.488;2023-09-18T14:07:23;98588.50;;;22.85;43.79
29879;BME280;16752;53.364;-1.488;2023-09-18T14:10:11;98597.47;;;23.39;42.47
29879;BME280;16752;53.364;-1.488;2023-09-18T14:13:08;98595.59;;;23.39;44.11
29879;BME280;16752;53.364;-1.488;2023-09-18T14:15:55;98641.03;;;24.64;41.07
29879;BME280;16752;53.364;-1.488;2023-09-18T14:18:40;98690.00;;;25.35;39.07
29879;BME280;16752;53.364;-1.488;2023-09-18T14:21:24;98672.31;;;25.63;38.37
29879;BME280;16752;53.364;-1.488;2023-09-18T14:24:11;98671.41;;;25.17;38.31
29879;BME280;16752;53.364;-1.488;2023-09-18T14:29:38;98702.25;;;26.78;37.67
29879;BME280;16752;53.364;-1.488;2023-09-18T14:32:22;98679.47;;;26.31;36.54
29879;BME280;16752;53.364;-1.488;2023-09-18T14:35:06;98622.22;;;25.80;37.59
29879;BME280;16752;53.364;-1.488;2023-09-18T14:37:53;98636.38;;;24.60;37.03
29879;BME280;16752;53.364;-1.488;2023-09-18T14:40:43;98703.16;;;25.37;35.50
29879;BME280;16752;53.364;-1.488;2023-09-18T14:43:29;98655.25;;;24.77;36.90
29879;BME280;16752;53.364;-1.488;2023-09-18T14:46:17;98589.19;;;24.00;37.67
29879;BME280;16752;53.364;-1.488;2023-09-18T14:49:01;98693.22;;;24.20;37.05
29879;BME280;16752;53.364;-1.488;2023-09-18T14:51:45;98723.50;;;23.91;37.10
29879;BME280;16752;53.364;-1.488;2023-09-18T14:54:30;98697.13;;;24.48;36.32
29879;BME280;16752;53.364;-1.488;2023-09-18T14:57:18;98731.69;;;24.37;36.67
29879;BME280;16752;53.364;-1.488;2023-09-18T15:00:02;98693.28;;;23.72;36.13
29879;BME280;16752;53.364;-1.488;2023-09-18T15:02:56;98727.16;;;23.78;37.25
29879;BME280;16752;53.364;-1.488;2023-09-18T15:05:40;98704.56;;;24.04;35.86
29879;BME280;16752;53.364;-1.488;2023-09-18T15:08:25;98697.97;;;24.60;37.06
29879;BME280;16752;53.364;-1.488;2023-09-18T15:11:10;98743.09;;;24.45;35.88
29879;BME280;16752;53.364;-1.488;2023-09-18T15:13:54;98708.56;;;23.83;36.11
29879;BME280;16752;53.364;-1.488;2023-09-18T15:16:39;98751.78;;;23.07;35.85
29879;BME280;16752;53.364;-1.488;2023-09-18T15:19:23;98734.88;;;23.31;37.69
29879;BME280;16752;53.364;-1.488;2023-09-18T15:22:13;98733.47;;;23.47;34.69